Time;durP1;ratioP1;P1;durP2;ratioP2;P2;SDS_P1;SDS_P2;PMS_P1;PMS_P2;Temp;Humidity;BMP_temperature;BMP_pressure;BME280_temperature;BME280_humidity;BME280_pressure;Samples;Min_cycle;Max_cycle;Signal;HPM_P1;HPM_P2
2023/09/30 00:00:47;;;;;;;1999.90;999.90;;;14.30;99.90;;;;;;5084349;28;20467;-74
2023/09/30 00:03:14;;;;;;;1999.90;999.90;;;14.40;99.90;;;;;;5090010;28;20429;-74
2023/09/30 00:05:41;;;;;;;1999.90;999.90;;;14.40;99.90;;;;;;5085825;28;20433;-74
2023/09/30 00:08:09;;;;;;;1999.90;999.90;;;14.50;99.90;;;;;;5092899;28;20918;-74
2023/09/30 00:10:36;;;;;;;1999.90;999.90;;;14.40;99.90;;;;;;5091912;28;20468;-74
2023/09/30 00:13:03;;;;;;;1999.90;999.90;;;14.40;99.90;;;;;;5087091;28;20482;-74
2023/09/30 00:15:30;;;;;;;1999.90;999.90;;;14.30;99.90;;;;;;5091598;28;20426;-74
2023/09/30 00:17:56;;;;;;;1999.90;999.90;;;14.30;99.90;;;;;;5087729;28;20437;-75
2023/09/30 00:20:23;;;;;;;1999.90;999.90;;;14.40;99.90;;;;;;5094919;28;20460;-73
2023/09/30 00:22:50;;;;;;;1999.90;999.90;;;14.40;99.90;;;;;;5092432;28;20425;-73
2023/09/30 00:25:18;;;;;;;1999.90;999.90;;;14.40;99.90;;;;;;5089791;28;20425;-74
2023/09/30 00:27:45;;;;;;;1999.90;999.90;;;14.20;99.90;;;;;;5083456;28;20547;-74
2023/09/30 00:30:12;;;;;;;1999.90;999.90;;;14.10;99.90;;;;;;5093004;28;20433;-74
2023/09/30 00:32:39;;;;;;;1999.90;999.90;;;14.10;99.90;;;;;;5094898;28;20421;-74
2023/09/30 00:35:10;;;;;;;1999.90;999.90;;;14.10;99.90;;;;;;5090493;28;20431;-74
2023/09/30 00:37:38;;;;;;;1999.90;999.90;;;14.20;99.90;;;;;;5089722;28;20458;-74
2023/09/30 00:40:06;;;;;;;1999.90;999.90;;;14.20;99.90;;;;;;5086874;28;20453;-74
2023/09/30 00:42:34;;;;;;;1999.90;999.90;;;14.10;99.90;;;;;;5094709;28;20421;-74
2023/09/30 00:45:01;;;;;;;1999.90;999.90;;;14.10;99.90;;;;;;5092672;28;20425;-73
2023/09/30 00:47:28;;;;;;;1999.90;999.90;;;14.00;99.90;;;;;;5094062;28;20438;-74
2023/09/30 00:49:54;;;;;;;1999.90;999.90;;;14.00;99.90;;;;;;5091813;28;20437;-74
2023/09/30 00:52:22;;;;;;;1999.90;999.90;;;14.10;99.90;;;;;;5088424;28;20426;-74
2023/09/30 00:54:50;;;;;;;1999.90;999.90;;;14.00;99.90;;;;;;5094056;28;20469;-74
2023/09/30 00:57:18;;;;;;;1999.90;999.90;;;14.10;99.90;;;;;;5089957;28;20791;-74
2023/09/30 00:59:46;;;;;;;1999.90;999.90;;;14.00;99.90;;;;;;5089374;28;20434;-74
2023/09/30 01:02:13;;;;;;;1999.90;999.90;;;14.00;99.90;;;;;;5089053;28;20428;-73
2023/09/30 01:04:40;;;;;;;1999.90;999.90;;;14.00;99.90;;;;;;5086085;28;20940;-74
2023/09/30 01:07:07;;;;;;;1999.90;999.90;;;13.90;99.90;;;;;;5085772;28;20433;-75
2023/09/30 01:09:36;;;;;;;1999.90;999.90;;;13.90;99.90;;;;;;5088895;28;20512;-74
2023/09/30 01:12:03;;;;;;;1999.90;999.90;;;13.90;99.90;;;;;;5086155;28;20455;-75
2023/09/30 01:14:31;;;;;;;1999.90;999.90;;;13.90;99.90;;;;;;5087697;28;20937;-74
2023/09/30 01:16:59;;;;;;;1999.90;999.90;;;13.90;99.90;;;;;;5084749;28;20432;-74
2023/09/30 01:19:26;;;;;;;1999.90;999.90;;;13.90;99.90;;;;;;5083023;28;20433;-73
2023/09/30 01:21:58;;;;;;;1999.90;999.90;;;13.90;99.90;;;;;;5087643;28;20438;-74
2023/09/30 01:24:25;;;;;;;1999.90;999.90;;;13.90;99.90;;;;;;5090885;28;20425;-74
2023/09/30 01:26:52;;;;;;;1999.90;999.90;;;13.80;99.90;;;;;;5090786;28;20784;-74
2023/09/30 01:29:19;;;;;;;1999.90;999.90;;;14.00;99.90;;;;;;5087240;28;20426;-74
2023/09/30 01:31:47;;;;;;;1999.90;999.90;;;14.00;99.90;;;;;;5082958;28;20801;-74
2023/09/30 01:34:14;;;;;;;1999.90;999.90;;;13.90;99.90;;;;;;5088888;28;20475;-73
2023/09/30 01:36:41;;;;;;;1999.90;999.90;;;13.80;99.90;;;;;;5091149;28;20429;-74
2023/09/30 01:39:10;;;;;;;1999.90;999.90;;;13.90;99.90;;;;;;5090080;28;20935;-74
2023/09/30 01:41:37;;;;;;;1999.90;999.90;;;13.80;99.90;;;;;;5089790;28;20657;-74
2023/09/30 01:44:04;;;;;;;1999.90;999.90;;;13.90;99.90;;;;;;5085765;28;20433;-74
2023/09/30 01:46:30;;;;;;;1999.90;999.90;;;14.00;99.90;;;;;;5084063;28;20425;-74
2023/09/30 01:48:57;;;;;;;1999.90;999.90;;;13.90;99.90;;;;;;5085340;28;20436;-74
2023/09/30 01:51:24;;;;;;;1999.90;999.90;;;13.70;99.90;;;;;;5088643;28;20433;-74
2023/09/30 01:53:51;;;;;;;1999.90;999.90;;;13.70;99.90;;;;;;5089531;28;20425;-73
2023/09/30 01:56:20;;;;;;;1999.90;999.90;;;13.60;99.90;;;;;;5085478;28;20832;-74
2023/09/30 01:58:46;;;;;;;1999.90;999.90;;;13.60;99.90;;;;;;5081310;28;20422;-74
2023/09/30 02:01:13;;;;;;;1999.90;999.90;;;13.60;99.90;;;;;;5089231;28;20503;-74
2023/09/30 02:03:40;;;;;;;1999.90;999.90;;;13.60;99.90;;;;;;5088880;28;20915;-74
2023/09/30 02:06:10;;;;;;;1999.90;999.90;;;13.60;99.90;;;;;;5089926;28;21108;-73
2023/09/30 02:08:37;;;;;;;1999.90;999.90;;;13.60;99.90;;;;;;5089425;28;20437;-73
2023/09/30 02:11:05;;;;;;;1999.90;999.90;;;13.60;99.90;;;;;;5086649;28;20430;-74
2023/09/30 02:13:34;;;;;;;1999.90;999.90;;;13.60;99.90;;;;;;5086045;28;20430;-74
2023/09/30 02:16:01;;;;;;;1999.90;999.90;;;13.50;99.90;;;;;;5088640;28;20428;-74
2023/09/30 02:18:28;;;;;;;1999.90;999.90;;;13.60;99.90;;;;;;5090071;28;20429;-74
2023/09/30 02:20:54;;;;;;;1999.90;999.90;;;13.60;99.90;;;;;;5088972;28;20426;-74
2023/09/30 02:23:22;;;;;;;1999.90;999.90;;;13.60;99.90;;;;;;5085921;28;20425;-74
2023/09/30 02:25:49;;;;;;;1999.90;999.90;;;13.60;99.90;;;;;;5084753;28;20457;-74
2023/09/30 02:28:16;;;;;;;1999.90;999.90;;;13.60;99.90;;;;;;5087110;28;20807;-74
2023/09/30 02:30:44;;;;;;;1999.90;999.90;;;13.60;99.90;;;;;;5089799;28;20437;-74
2023/09/30 02:33:10;;;;;;;1999.90;999.90;;;13.60;99.90;;;;;;5088236;28;20425;-74
2023/09/30 02:35:38;;;;;;;1999.90;999.90;;;13.60;99.90;;;;;;5085432;28;20921;-73
2023/09/30 02:38:06;;;;;;;1999.90;999.90;;;13.50;99.90;;;;;;5083959;28;20432;-73
2023/09/30 02:40:33;;;;;;;1999.90;999.90;;;13.50;99.90;;;;;;5089783;28;20457;-74
2023/09/30 02:43:00;;;;;;;1999.90;999.90;;;13.60;99.90;;;;;;5089208;28;20421;-74
2023/09/30 02:45:27;;;;;;;1999.90;999.90;;;13.50;99.90;;;;;;5086930;28;20425;-74
2023/09/30 02:47:55;;;;;;;1999.90;999.90;;;13.50;99.90;;;;;;5085357;28;20433;-73
2023/09/30 02:50:22;;;;;;;1999.90;999.90;;;13.50;99.90;;;;;;5089876;28;20433;-74
2023/09/30 02:52:49;;;;;;;1999.90;999.90;;;13.50;99.90;;;;;;5089172;28;20487;-73
2023/09/30 02:55:16;;;;;;;1999.90;999.90;;;13.50;99.90;;;;;;5088316;28;20432;-74
2023/09/30 02:57:43;;;;;;;1999.90;999.90;;;13.50;99.90;;;;;;5086749;28;20422;-74
2023/09/30 03:00:23;;;;;;;1999.90;999.90;;;13.60;99.90;;;;;;5085955;28;20926;-74
2023/09/30 03:02:50;;;;;;;1999.90;999.90;;;13.60;99.90;;;;;;5087222;28;20428;-74
2023/09/30 03:05:19;;;;;;;1999.90;999.90;;;13.60;99.90;;;;;;5088023;28;20436;-74
2023/09/30 03:07:46;;;;;;;1999.90;999.90;;;13.60;99.90;;;;;;5081531;28;20427;-74
2023/09/30 03:10:14;;;;;;;1999.90;999.90;;;13.60;99.90;;;;;;5087945;28;20432;-74
2023/09/30 03:12:40;;;;;;;1999.90;999.90;;;13.50;99.90;;;;;;5088841;28;20430;-73
2023/09/30 03:15:09;;;;;;;1999.90;999.90;;;13.60;99.90;;;;;;5088046;28;20431;-74
2023/09/30 03:17:37;;;;;;;1999.90;999.90;;;13.50;99.90;;;;;;5088504;28;20434;-74
2023/09/30 03:20:11;;;;;;;1999.90;999.90;;;13.60;99.90;;;;;;5082176;28;20808;-74
2023/09/30 03:22:40;;;;;;;1999.90;999.90;;;13.70;99.90;;;;;;5082678;28;20426;-74
2023/09/30 03:25:09;;;;;;;1999.90;999.90;;;13.80;99.90;;;;;;5087790;28;20426;-74
2023/09/30 03:27:36;;;;;;;1999.90;999.90;;;13.70;99.90;;;;;;5088697;28;20534;-74
2023/09/30 03:30:03;;;;;;;1999.90;999.90;;;13.70;99.90;;;;;;5082705;28;20455;-74
2023/09/30 03:32:30;;;;;;;1999.90;999.90;;;13.60;99.90;;;;;;5086604;28;20457;-74
2023/09/30 03:34:59;;;;;;;1999.90;999.90;;;13.70;99.90;;;;;;5085821;28;20433;-74
2023/09/30 03:37:26;;;;;;;1999.90;999.90;;;13.60;99.90;;;;;;5087892;28;20426;-74
2023/09/30 03:39:55;;;;;;;1999.90;999.90;;;13.70;99.90;;;;;;5085382;28;20430;-74
2023/09/30 03:42:22;;;;;;;1999.90;999.90;;;13.70;99.90;;;;;;5086213;28;20430;-74
2023/09/30 03:44:49;;;;;;;1999.90;999.90;;;13.60;99.90;;;;;;5083211;28;20475;-74
2023/09/30 03:47:16;;;;;;;1999.90;999.90;;;13.60;99.90;;;;;;5082947;28;20431;-74
2023/09/30 03:49:43;;;;;;;1999.90;999.90;;;13.60;99.90;;;;;;5088679;28;20436;-73
2023/09/30 03:52:10;;;;;;;1999.90;999.90;;;13.60;99.90;;;;;;5088490;28;20482;-74
2023/09/30 03:54:37;;;;;;;1999.90;999.90;;;13.60;99.90;;;;;;5083192;28;20527;-74
2023/09/30 03:57:05;;;;;;;1999.90;999.90;;;13.60;99.90;;;;;;5087913;28;20445;-73
2023/09/30 03:59:32;;;;;;;1999.90;999.90;;;13.70;99.90;;;;;;5087757;28;20425;-73
2023/09/30 04:01:59;;;;;;;1999.90;999.90;;;13.70;99.90;;;;;;5088170;28;20803;-73
2023/09/30 04:04:26;;;;;;;1999.90;999.90;;;13.70;99.90;;;;;;5086225;28;20942;-73
2023/09/30 04:06:52;;;;;;;1999.90;999.90;;;13.70;99.90;;;;;;5086137;28;20915;-74
2023/09/30 04:09:20;;;;;;;1999.90;999.90;;;13.60;99.90;;;;;;5087213;28;20432;-74
2023/09/30 04:11:47;;;;;;;1999.90;999.90;;;13.50;99.90;;;;;;5088608;28;20433;-73
2023/09/30 04:14:17;;;;;;;1999.90;999.90;;;14.00;99.90;;;;;;5088186;28;20430;-74
2023/09/30 04:16:44;;;;;;;1999.90;999.90;;;13.60;99.90;;;;;;5085022;28;20467;-74
2023/09/30 04:19:11;;;;;;;1999.90;999.90;;;13.50;99.90;;;;;;5083434;28;20868;-73
2023/09/30 04:21:38;;;;;;;1999.90;999.90;;;13.50;99.90;;;;;;5087143;28;20450;-73
2023/09/30 04:24:06;;;;;;;1999.90;999.90;;;13.50;99.90;;;;;;5087686;28;20799;-74
2023/09/30 04:26:33;;;;;;;1999.90;999.90;;;13.50;99.90;;;;;;5086031;28;20483;-74
2023/09/30 04:29:01;;;;;;;1999.90;999.90;;;13.50;99.90;;;;;;5081332;28;20460;-73
2023/09/30 04:31:29;;;;;;;1999.90;999.90;;;13.40;99.90;;;;;;5089706;28;20498;-73
2023/09/30 04:33:57;;;;;;;1999.90;999.90;;;13.30;99.90;;;;;;5087576;28;20471;-74
2023/09/30 04:36:24;;;;;;;1999.90;999.90;;;13.30;99.90;;;;;;5091066;28;20931;-72
2023/09/30 04:38:51;;;;;;;1999.90;999.90;;;13.20;99.90;;;;;;5091187;28;20460;-74
2023/09/30 04:41:18;;;;;;;1999.90;999.90;;;13.20;99.90;;;;;;5090997;28;20429;-74
2023/09/30 04:43:46;;;;;;;1999.90;999.90;;;13.30;99.90;;;;;;5091015;28;20422;-74
2023/09/30 04:46:13;;;;;;;1999.90;999.90;;;13.40;99.90;;;;;;5090010;28;20450;-74
2023/09/30 04:48:41;;;;;;;1999.90;999.90;;;13.40;99.90;;;;;;5088351;28;20445;-73
2023/09/30 04:51:09;;;;;;;1999.90;999.90;;;13.30;99.90;;;;;;5090235;28;20432;-73
2023/09/30 04:53:35;;;;;;;1999.90;999.90;;;13.10;99.90;;;;;;5091676;28;20926;-74
2023/09/30 04:56:04;;;;;;;1999.90;999.90;;;13.10;99.90;;;;;;5089504;28;20425;-74
2023/09/30 04:58:31;;;;;;;1999.90;999.90;;;13.10;99.90;;;;;;5087175;28;20437;-74
2023/09/30 05:00:58;;;;;;;1999.90;999.90;;;13.20;99.90;;;;;;5090474;28;20807;-74
2023/09/30 05:03:24;;;;;;;1999.90;999.90;;;13.00;99.90;;;;;;5090210;28;20429;-74
2023/09/30 05:05:55;;;;;;;1999.90;999.90;;;13.00;99.90;;;;;;5089341;28;20434;-74
2023/09/30 05:08:23;;;;;;;1999.90;999.90;;;13.10;99.90;;;;;;5091597;28;20618;-73
2023/09/30 05:10:49;;;;;;;1999.90;999.90;;;13.10;99.90;;;;;;5087601;28;20430;-73
2023/09/30 05:13:17;;;;;;;1999.90;999.90;;;13.00;99.90;;;;;;5091032;28;20425;-73
2023/09/30 05:15:44;;;;;;;1999.90;999.90;;;13.30;99.90;;;;;;5088295;28;20702;-73
2023/09/30 05:18:11;;;;;;;1999.90;999.90;;;13.10;99.90;;;;;;5089891;28;20426;-74
2023/09/30 05:20:38;;;;;;;1999.90;999.90;;;13.00;99.90;;;;;;5089229;28;20911;-72
2023/09/30 05:23:07;;;;;;;1999.90;999.90;;;13.00;99.90;;;;;;5090891;28;20513;-74
2023/09/30 05:25:34;;;;;;;1999.90;999.90;;;13.10;99.90;;;;;;5089678;28;20948;-74
2023/09/30 05:28:01;;;;;;;1999.90;999.90;;;13.10;99.90;;;;;;5090056;28;20480;-74
2023/09/30 05:30:28;;;;;;;1999.90;999.90;;;13.10;99.90;;;;;;5089467;28;20445;-74
2023/09/30 05:32:55;;;;;;;1999.90;999.90;;;13.10;99.90;;;;;;5082819;28;20427;-73
2023/09/30 05:35:22;;;;;;;1999.90;999.90;;;13.10;99.90;;;;;;5088364;28;20438;-75
2023/09/30 05:37:52;;;;;;;1999.90;999.90;;;13.00;99.90;;;;;;5089954;28;20950;-74
2023/09/30 05:40:24;;;;;;;1999.90;999.90;;;13.10;99.90;;;;;;5084766;28;20453;-73
2023/09/30 05:42:52;;;;;;;1999.90;999.90;;;13.10;99.90;;;;;;5087396;28;20428;-73
2023/09/30 05:45:19;;;;;;;1999.90;999.90;;;13.20;99.90;;;;;;5088013;28;20426;-73
2023/09/30 05:47:46;;;;;;;1999.90;999.90;;;13.20;99.90;;;;;;5087535;28;20425;-73
2023/09/30 05:50:15;;;;;;;1999.90;999.90;;;13.30;99.90;;;;;;5088149;28;20432;-73
2023/09/30 05:52:42;;;;;;;1999.90;999.90;;;13.30;99.90;;;;;;5088667;28;20946;-74
2023/09/30 05:55:10;;;;;;;1999.90;999.90;;;13.30;99.90;;;;;;5086327;28;20425;-73
2023/09/30 05:57:38;;;;;;;1999.90;999.90;;;13.20;99.90;;;;;;5084485;28;20426;-74
2023/09/30 06:00:20;;;;;;;1999.90;999.90;;;13.30;99.90;;;;;;5087741;28;20505;-73
2023/09/30 06:02:47;;;;;;;1999.90;999.90;;;13.40;99.90;;;;;;5088916;28;20429;-74
2023/09/30 06:05:16;;;;;;;1999.90;999.90;;;13.50;99.90;;;;;;5087535;28;20461;-73
2023/09/30 06:07:45;;;;;;;1999.90;999.90;;;13.50;99.90;;;;;;5084912;28;20543;-74
2023/09/30 06:10:12;;;;;;;1999.90;999.90;;;13.70;99.90;;;;;;5091514;28;20425;-73
2023/09/30 06:12:41;;;;;;;1999.90;999.90;;;13.70;99.90;;;;;;5086722;28;20425;-74
2023/09/30 06:15:10;;;;;;;1999.90;999.90;;;13.90;99.90;;;;;;5081924;28;20913;-74
2023/09/30 06:17:37;;;;;;;1999.90;999.90;;;14.00;99.90;;;;;;5084109;28;20520;-74
2023/09/30 06:20:09;;;;;;;1999.90;999.90;;;14.10;99.90;;;;;;5082437;28;20435;-74
2023/09/30 06:22:36;;;;;;;1999.90;999.90;;;14.20;99.90;;;;;;5089163;28;20510;-74
2023/09/30 06:25:03;;;;;;;1999.90;999.90;;;14.20;99.90;;;;;;5086661;28;20430;-74
2023/09/30 06:27:30;;;;;;;1999.90;999.90;;;14.30;99.90;;;;;;5089786;28;20432;-74
2023/09/30 06:29:58;;;;;;;1999.90;999.90;;;14.40;99.90;;;;;;5088772;28;20441;-74
2023/09/30 06:32:25;;;;;;;1999.90;999.90;;;14.50;99.90;;;;;;5088987;28;20426;-73
2023/09/30 06:34:52;;;;;;;1999.90;999.90;;;14.70;99.90;;;;;;5087276;28;20448;-74
2023/09/30 06:37:19;;;;;;;1999.90;999.90;;;14.70;99.90;;;;;;5089088;28;20421;-74
2023/09/30 06:39:48;;;;;;;1999.90;999.90;;;14.70;99.90;;;;;;5084883;28;20433;-74
2023/09/30 06:42:15;;;;;;;1999.90;999.90;;;14.70;99.90;;;;;;5085828;28;20896;-74
2023/09/30 06:44:42;;;;;;;1999.90;999.90;;;14.60;99.90;;;;;;5084900;28;20430;-73
2023/09/30 06:47:12;;;;;;;1999.90;999.90;;;14.70;99.90;;;;;;5088181;28;20437;-73
2023/09/30 06:49:38;;;;;;;1999.90;999.90;;;14.60;99.90;;;;;;5087906;28;20426;-73
2023/09/30 06:52:05;;;;;;;1999.90;999.90;;;14.70;99.90;;;;;;5085809;28;20437;-74
2023/09/30 06:54:32;;;;;;;1999.90;999.90;;;14.70;99.90;;;;;;5088338;28;20431;-74
2023/09/30 06:56:59;;;;;;;1999.90;999.90;;;14.80;99.90;;;;;;5089560;28;20913;-73
2023/09/30 06:59:26;;;;;;;1999.90;999.90;;;14.90;99.90;;;;;;5089518;28;20498;-74
2023/09/30 07:01:53;;;;;;;1999.90;999.90;;;15.00;99.90;;;;;;5087256;28;20431;-73
2023/09/30 07:04:21;;;;;;;1999.90;999.90;;;15.20;99.90;;;;;;5087641;28;20425;-73
2023/09/30 07:06:48;;;;;;;1999.90;999.90;;;15.40;99.90;;;;;;5080651;28;20427;-73
2023/09/30 07:09:16;;;;;;;1999.90;999.90;;;15.50;99.90;;;;;;5082621;28;20406;-73
2023/09/30 07:11:44;;;;;;;1999.90;999.90;;;15.70;99.90;;;;;;5090698;28;20417;-73
2023/09/30 07:14:10;;;;;;;1999.90;999.90;;;15.60;99.90;;;;;;5085271;28;20439;-73
2023/09/30 07:16:38;;;;;;;1999.90;999.90;;;15.40;99.90;;;;;;5087130;28;20884;-73
2023/09/30 07:19:04;;;;;;;1999.90;999.90;;;15.50;99.90;;;;;;5090717;28;20433;-73
2023/09/30 07:21:32;;;;;;;1999.90;999.90;;;15.60;99.90;;;;;;5090852;28;20421;-73
2023/09/30 07:23:59;;;;;;;1999.90;999.90;;;15.80;99.90;;;;;;5082028;28;20442;-73
2023/09/30 07:26:27;;;;;;;1999.90;999.90;;;15.80;99.90;;;;;;5079925;28;20427;-73
2023/09/30 07:28:56;;;;;;;1999.90;999.90;;;16.10;99.90;;;;;;5079994;28;20463;-73
2023/09/30 07:31:23;;;;;;;1999.90;999.90;;;16.40;99.90;;;;;;5082366;28;20507;-74
2023/09/30 07:33:50;;;;;;;1999.90;999.90;;;16.60;99.90;;;;;;5089885;28;20416;-74
2023/09/30 07:36:17;;;;;;;1999.90;999.90;;;16.80;99.90;;;;;;5089422;28;20429;-73
2023/09/30 07:38:46;;;;;;;1999.90;999.90;;;16.90;99.90;;;;;;5082254;28;20983;-73
2023/09/30 07:41:13;;;;;;;1999.90;999.90;;;17.30;99.90;;;;;;5090315;28;20899;-73
2023/09/30 07:43:40;;;;;;;1999.90;999.90;;;17.40;99.90;;;;;;5089809;28;20784;-73
2023/09/30 07:46:07;;;;;;;1999.90;999.90;;;17.50;99.90;;;;;;5085517;28;20432;-74
2023/09/30 07:48:34;;;;;;;1999.90;999.90;;;17.70;99.90;;;;;;5079413;28;20407;-73
2023/09/30 07:51:01;;;;;;;1999.90;999.90;;;17.80;99.90;;;;;;5090112;28;20410;-74
2023/09/30 07:53:28;;;;;;;1999.90;999.90;;;18.00;99.90;;;;;;5090348;28;20441;-74
2023/09/30 07:55:56;;;;;;;1999.90;999.90;;;17.90;99.90;;;;;;5090039;28;20455;-73
2023/09/30 07:58:23;;;;;;;1999.90;999.90;;;17.90;99.90;;;;;;5083481;28;20475;-74
2023/09/30 08:00:50;;;;;;;1999.90;999.90;;;17.80;99.90;;;;;;5080349;28;20438;-73
2023/09/30 08:03:17;;;;;;;1999.90;999.90;;;18.00;99.90;;;;;;5090199;28;20409;-73
2023/09/30 08:05:44;;;;;;;1999.90;999.90;;;18.20;99.90;;;;;;5088033;28;20422;-73
2023/09/30 08:08:10;;;;;;;1999.90;999.90;;;18.30;99.90;;;;;;5091347;28;20429;-74
2023/09/30 08:10:37;;;;;;;1999.90;999.90;;;18.40;99.90;;;;;;5086731;28;20436;-73
2023/09/30 08:13:05;;;;;;;1999.90;999.90;;;18.50;99.90;;;;;;5082727;28;20435;-72
2023/09/30 08:15:33;;;;;;;1999.90;999.90;;;18.30;99.90;;;;;;5085266;28;20418;-73
2023/09/30 08:17:59;;;;;;;1999.90;999.90;;;18.40;99.90;;;;;;5085332;28;20435;-72
2023/09/30 08:20:26;;;;;;;1999.90;999.90;;;18.10;99.90;;;;;;5083796;28;20438;-73
2023/09/30 08:22:53;;;;;;;1999.90;999.90;;;18.60;99.90;;;;;;5083120;28;20438;-73
2023/09/30 08:25:20;;;;;;;1999.90;999.90;;;18.80;99.90;;;;;;5079520;28;20422;-74
2023/09/30 08:27:49;;;;;;;1999.90;999.90;;;18.90;99.90;;;;;;5084624;28;20784;-74
2023/09/30 08:30:17;;;;;;;1999.90;999.90;;;19.00;99.90;;;;;;5085498;28;20498;-73
2023/09/30 08:32:46;;;;;;;1999.90;999.90;;;19.30;99.90;;;;;;5083308;28;20784;-73
2023/09/30 08:35:14;;;;;;;1999.90;999.90;;;19.60;99.90;;;;;;5081110;28;20450;-74
2023/09/30 08:37:41;;;;;;;1999.90;999.90;;;19.70;99.90;;;;;;5090605;28;20418;-73
2023/09/30 08:40:10;;;;;;;1999.90;999.90;;;19.50;99.90;;;;;;5093553;28;20903;-73
2023/09/30 08:42:39;;;;;;;1999.90;999.90;;;19.50;99.90;;;;;;5092127;28;20433;-73
2023/09/30 08:45:11;;;;;;;1999.90;999.90;;;19.30;99.90;;;;;;5078286;28;20784;-73
2023/09/30 08:47:41;;;;;;;1999.90;999.90;;;19.10;99.90;;;;;;5093684;28;20406;-73
2023/09/30 08:50:10;;;;;;;1999.90;999.90;;;19.50;99.90;;;;;;5093657;28;20436;-73
2023/09/30 08:52:39;;;;;;;1999.90;999.90;;;19.50;99.90;;;;;;5092551;28;20493;-73
2023/09/30 08:55:08;;;;;;;1999.90;999.90;;;19.40;99.90;;;;;;5082947;28;20437;-73
2023/09/30 08:57:39;;;;;;;1999.90;999.90;;;19.40;99.90;;;;;;5089458;28;20414;-74
2023/09/30 09:00:11;;;;;;;1999.90;999.90;;;19.60;99.90;;;;;;5089655;28;20976;-74
2023/09/30 09:02:39;;;;;;;1999.90;999.90;;;19.90;99.90;;;;;;5085069;28;20433;-73
2023/09/30 09:05:07;;;;;;;1999.90;999.90;;;19.80;99.90;;;;;;5084757;28;20422;-74
2023/09/30 09:07:34;;;;;;;1999.90;999.90;;;19.80;99.90;;;;;;5093016;28;20412;-74
2023/09/30 09:10:05;;;;;;;1999.90;999.90;;;19.80;99.90;;;;;;5091361;28;20976;-73
2023/09/30 09:12:32;;;;;;;1999.90;999.90;;;19.70;99.90;;;;;;5086845;28;20497;-73
2023/09/30 09:14:59;;;;;;;1999.90;999.90;;;19.50;99.90;;;;;;5086344;28;20425;-73
2023/09/30 09:17:43;;;;;;;1999.90;999.90;;;19.50;99.90;;;;;;5083254;28;20475;-73
2023/09/30 09:20:11;;;;;;;1999.90;999.90;;;19.10;99.90;;;;;;5083165;28;20861;-73
2023/09/30 09:22:41;;;;;;;1999.90;999.90;;;19.40;99.90;;;;;;5086449;28;20430;-74
2023/09/30 09:25:09;;;;;;;1999.90;999.90;;;19.70;99.90;;;;;;5083447;28;20907;-74
2023/09/30 09:27:36;;;;;;;1999.90;999.90;;;20.00;99.90;;;;;;5086141;28;20432;-74
2023/09/30 09:30:15;;;;;;;1999.90;999.90;;;20.70;99.90;;;;;;5092846;28;20410;-73
2023/09/30 09:33:00;;;;;;;1999.90;999.90;;;20.40;99.90;;;;;;5084787;28;20438;-73
2023/09/30 09:35:30;;;;;;;1999.90;999.90;;;20.40;99.90;;;;;;5080835;28;20509;-73
2023/09/30 09:37:58;;;;;;;1999.90;999.90;;;20.00;99.90;;;;;;5092429;28;20461;-74
2023/09/30 09:40:27;;;;;;;1999.90;999.90;;;20.00;99.90;;;;;;5092455;28;20410;-73
2023/09/30 09:42:55;;;;;;;1999.90;999.90;;;20.30;99.90;;;;;;5092201;28;20414;-73
2023/09/30 09:45:26;;;;;;;1999.90;999.90;;;20.50;99.90;;;;;;5084670;28;20464;-74
2023/09/30 09:47:55;;;;;;;1999.90;999.90;;;20.60;99.90;;;;;;5083775;28;20492;-74
2023/09/30 09:50:23;;;;;;;1999.90;999.90;;;20.50;99.90;;;;;;5085936;28;20413;-74
2023/09/30 09:52:51;;;;;;;1999.90;999.90;;;20.30;99.90;;;;;;5092070;28;20412;-74
2023/09/30 09:55:19;;;;;;;1999.90;999.90;;;20.00;99.90;;;;;;5091821;28;20408;-74
2023/09/30 09:57:46;;;;;;;1999.90;999.90;;;19.80;99.90;;;;;;5083701;28;20435;-73
2023/09/30 10:00:16;;;;;;;1999.90;999.90;;;19.80;99.90;;;;;;5086296;28;20418;-73
2023/09/30 10:02:43;;;;;;;1999.90;999.90;;;20.20;99.90;;;;;;5092437;28;20440;-73
2023/09/30 10:05:11;;;;;;;1999.90;999.90;;;20.00;99.90;;;;;;5087364;28;20429;-73
2023/09/30 10:07:43;;;;;;;1999.90;999.90;;;19.80;99.90;;;;;;5087027;28;20460;-74
2023/09/30 10:10:14;;;;;;;1999.90;999.90;;;19.80;99.90;;;;;;5080545;28;20788;-73
2023/09/30 10:12:42;;;;;;;1999.90;999.90;;;20.00;99.90;;;;;;5076490;28;20440;-73
2023/09/30 10:15:39;;;;;;;1999.90;999.90;;;19.90;99.90;;;;;;5077931;28;20908;-73
2023/09/30 10:18:07;;;;;;;1999.90;999.90;;;19.60;99.90;;;;;;5081958;28;20414;-73
2023/09/30 10:20:37;;;;;;;1999.90;999.90;;;19.50;99.90;;;;;;5087104;28;20402;-74
2023/09/30 10:23:20;;;;;;;1999.90;999.90;;;19.70;99.90;;;;;;5083994;28;20426;-74
2023/09/30 10:25:48;;;;;;;1999.90;999.90;;;19.80;99.90;;;;;;5082642;28;20486;-73
2023/09/30 10:28:38;;;;;;;1999.90;999.90;;;20.00;99.90;;;;;;5088851;28;20506;-74
2023/09/30 10:31:17;;;;;;;1999.90;999.90;;;20.00;99.90;;;;;;5087330;28;20426;-73
2023/09/30 10:34:22;;;;;;;1999.90;999.90;;;19.90;99.90;;;;;;5082835;28;20440;-73
2023/09/30 10:36:53;;;;;;;1999.90;999.90;;;19.90;99.90;;;;;;5081267;28;20430;-73
2023/09/30 10:39:52;;;;;;;1999.90;999.90;;;19.70;99.90;;;;;;5080331;28;20425;-73
2023/09/30 10:42:51;;;;;;;1999.90;999.90;;;19.80;99.90;;;;;;5086296;28;20504;-74
2023/09/30 10:45:44;;;;;;;1999.90;999.90;;;19.90;99.90;;;;;;5087753;28;20457;-73
2023/09/30 10:48:36;;;;;;;1999.90;999.90;;;20.10;99.90;;;;;;5083334;28;20461;-73
2023/09/30 10:51:15;;;;;;;1999.90;999.90;;;20.20;99.90;;;;;;5080139;28;20796;-74
2023/09/30 10:53:52;;;;;;;1999.90;999.90;;;20.70;99.90;;;;;;5086131;28;20444;-73
2023/09/30 10:56:20;;;;;;;1999.90;999.90;;;20.90;99.90;;;;;;5087156;28;20414;-74
2023/09/30 10:58:48;;;;;;;1999.90;999.90;;;21.30;99.90;;;;;;5087595;28;20437;-73
2023/09/30 11:01:17;;;;;;;1999.90;999.90;;;21.30;99.90;;;;;;5085627;28;21003;-73
2023/09/30 11:03:45;;;;;;;1999.90;999.90;;;21.00;99.90;;;;;;5084172;28;20439;-73
2023/09/30 11:06:17;;;;;;;1999.90;999.90;;;20.90;99.90;;;;;;5083783;28;20454;-74
2023/09/30 11:08:51;;;;;;;1999.90;999.90;;;20.50;99.90;;;;;;5085485;28;20606;-73
2023/09/30 11:11:18;;;;;;;1999.90;999.90;;;20.80;99.90;;;;;;5090937;28;20414;-74
2023/09/30 11:13:44;;;;;;;1999.90;999.90;;;20.90;99.90;;;;;;5090489;28;20409;-74
2023/09/30 11:16:12;;;;;;;1999.90;999.90;;;21.00;99.90;;;;;;5087443;28;20433;-74
2023/09/30 11:18:39;;;;;;;1999.90;999.90;;;21.10;99.90;;;;;;5084908;28;20433;-74
2023/09/30 11:21:12;;;;;;;1999.90;999.90;;;21.10;99.90;;;;;;5082352;28;20432;-74
2023/09/30 11:23:41;;;;;;;1999.90;999.90;;;21.20;99.90;;;;;;5085490;28;20908;-73
2023/09/30 11:26:10;;;;;;;1999.90;999.90;;;21.00;99.90;;;;;;5088132;28;21085;-73
2023/09/30 11:28:39;;;;;;;1999.90;999.90;;;21.00;99.90;;;;;;5085187;28;20440;-74
2023/09/30 11:31:10;;;;;;;1999.90;999.90;;;21.20;99.90;;;;;;5083917;28;20543;-73
2023/09/30 11:33:49;;;;;;;1999.90;999.90;;;21.50;99.90;;;;;;5078830;28;20511;-73
2023/09/30 11:36:17;;;;;;;1999.90;999.90;;;21.50;99.90;;;;;;5076703;28;20430;-73
2023/09/30 11:38:47;;;;;;;1999.90;999.90;;;21.40;99.90;;;;;;5080404;28;20988;-73
2023/09/30 11:41:15;;;;;;;1999.90;999.90;;;21.20;99.90;;;;;;5081094;28;20977;-74
2023/09/30 11:44:00;;;;;;;1999.90;999.90;;;21.10;99.90;;;;;;5086063;28;20867;-73
2023/09/30 11:46:27;;;;;;;1999.90;999.90;;;21.10;99.90;;;;;;5083099;28;20438;-73
2023/09/30 11:48:59;;;;;;;1999.90;999.90;;;21.00;99.90;;;;;;5085315;28;20414;-73
2023/09/30 11:51:26;;;;;;;1999.90;999.90;;;20.60;99.90;;;;;;5084243;28;20496;-74
2023/09/30 11:53:54;;;;;;;1999.90;999.90;;;20.50;99.90;;;;;;5085404;28;20517;-74
2023/09/30 11:56:27;;;;;;;1999.90;999.90;;;20.60;99.90;;;;;;5090183;28;20402;-73
2023/09/30 11:58:54;;;;;;;1999.90;999.90;;;20.80;99.90;;;;;;5090472;28;20884;-74
2023/09/30 12:01:21;;;;;;;1999.90;999.90;;;20.80;99.90;;;;;;5090340;28;20406;-73
2023/09/30 12:03:48;;;;;;;1999.90;999.90;;;21.10;99.90;;;;;;5079370;28;20904;-74
2023/09/30 12:06:16;;;;;;;1999.90;999.90;;;21.30;99.90;;;;;;5077420;28;20435;-74